sensor_id;sensor_type;location;lat;lon;timestamp;P1;durP1;ratioP1;P2;durP2;ratioP2
14704;SDS011;7442;50.840;3.396;2024-03-02T00:00:57;3.90;;;2.27;;
14704;SDS011;7442;50.840;3.396;2024-03-02T00:03:27;3.12;;;2.12;;
14704;SDS011;7442;50.840;3.396;2024-03-02T00:05:57;3.72;;;2.27;;
14704;SDS011;7442;50.840;3.396;2024-03-02T00:08:27;4.10;;;1.85;;
14704;SDS011;7442;50.840;3.396;2024-03-02T00:10:58;4.03;;;2.00;;
14704;SDS011;7442;50.840;3.396;2024-03-02T00:13:31;3.15;;;1.82;;
14704;SDS011;7442;50.840;3.396;2024-03-02T00:16:02;2.80;;;1.95;;
14704;SDS011;7442;50.840;3.396;2024-03-02T00:18:34;5.22;;;1.60;;
14704;SDS011;7442;50.840;3.396;2024-03-02T00:21:05;2.95;;;1.67;;
14704;SDS011;7442;50.840;3.396;2024-03-02T00:23:39;2.75;;;1.40;;
14704;SDS011;7442;50.840;3.396;2024-03-02T00:26:10;4.05;;;1.80;;
14704;SDS011;7442;50.840;3.396;2024-03-02T00:28:41;7.28;;;2.72;;
14704;SDS011;7442;50.840;3.396;2024-03-02T00:31:13;5.15;;;3.02;;
14704;SDS011;7442;50.840;3.396;2024-03-02T00:33:45;7.25;;;3.40;;
14704;SDS011;7442;50.840;3.396;2024-03-02T00:36:21;28.32;;;15.28;;
14704;SDS011;7442;50.840;3.396;2024-03-02T00:38:54;43.10;;;22.15;;
14704;SDS011;7442;50.840;3.396;2024-03-02T00:41:33;31.93;;;18.95;;
14704;SDS011;7442;50.840;3.396;2024-03-02T00:46:37;26.80;;;15.65;;
14704;SDS011;7442;50.840;3.396;2024-03-02T00:49:12;25.27;;;15.13;;
14704;SDS011;7442;50.840;3.396;2024-03-02T00:51:50;25.90;;;15.25;;
14704;SDS011;7442;50.840;3.396;2024-03-02T00:54:27;23.47;;;14.73;;
14704;SDS011;7442;50.840;3.396;2024-03-02T00:56:58;26.02;;;14.43;;
14704;SDS011;7442;50.840;3.396;2024-03-02T00:59:29;23.20;;;14.20;;
14704;SDS011;7442;50.840;3.396;2024-03-02T01:02:00;23.75;;;14.90;;
14704;SDS011;7442;50.840;3.396;2024-03-02T01:04:30;24.65;;;13.98;;
14704;SDS011;7442;50.840;3.396;2024-03-02T01:07:00;25.57;;;14.25;;
14704;SDS011;7442;50.840;3.396;2024-03-02T01:09:30;21.45;;;13.68;;
14704;SDS011;7442;50.840;3.396;2024-03-02T01:12:00;20.23;;;13.48;;
14704;SDS011;7442;50.840;3.396;2024-03-02T01:14:30;21.33;;;13.50;;
14704;SDS011;7442;50.840;3.396;2024-03-02T01:17:00;21.48;;;12.68;;
14704;SDS011;7442;50.840;3.396;2024-03-02T01:19:38;24.95;;;13.48;;
14704;SDS011;7442;50.840;3.396;2024-03-02T01:22:10;23.18;;;11.95;;
14704;SDS011;7442;50.840;3.396;2024-03-02T01:24:41;20.48;;;13.00;;
14704;SDS011;7442;50.840;3.396;2024-03-02T01:27:11;23.75;;;14.13;;
14704;SDS011;7442;50.840;3.396;2024-03-02T01:29:42;19.82;;;13.15;;
14704;SDS011;7442;50.840;3.396;2024-03-02T01:32:12;19.48;;;12.25;;
14704;SDS011;7442;50.840;3.396;2024-03-02T01:34:42;21.48;;;13.22;;
14704;SDS011;7442;50.840;3.396;2024-03-02T01:37:12;17.73;;;12.47;;
14704;SDS011;7442;50.840;3.396;2024-03-02T01:39:46;17.60;;;12.00;;
14704;SDS011;7442;50.840;3.396;2024-03-02T01:42:16;17.30;;;11.20;;
14704;SDS011;7442;50.840;3.396;2024-03-02T01:44:47;18.02;;;11.43;;
14704;SDS011;7442;50.840;3.396;2024-03-02T01:47:17;18.25;;;11.30;;
14704;SDS011;7442;50.840;3.396;2024-03-02T01:49:47;15.18;;;10.63;;
14704;SDS011;7442;50.840;3.396;2024-03-02T01:52:18;15.68;;;10.25;;
14704;SDS011;7442;50.840;3.396;2024-03-02T01:54:48;15.95;;;10.20;;
14704;SDS011;7442;50.840;3.396;2024-03-02T01:57:18;18.82;;;10.38;;
14704;SDS011;7442;50.840;3.396;2024-03-02T01:59:49;17.07;;;9.95;;
14704;SDS011;7442;50.840;3.396;2024-03-02T02:02:19;14.78;;;9.18;;
14704;SDS011;7442;50.840;3.396;2024-03-02T02:04:51;13.18;;;8.85;;
14704;SDS011;7442;50.840;3.396;2024-03-02T02:07:21;14.25;;;8.55;;
14704;SDS011;7442;50.840;3.396;2024-03-02T02:09:51;14.38;;;9.23;;
14704;SDS011;7442;50.840;3.396;2024-03-02T02:12:21;15.23;;;9.23;;
14704;SDS011;7442;50.840;3.396;2024-03-02T02:14:51;14.05;;;8.15;;
14704;SDS011;7442;50.840;3.396;2024-03-02T02:17:21;13.38;;;8.20;;
14704;SDS011;7442;50.840;3.396;2024-03-02T02:19:51;13.90;;;7.62;;
14704;SDS011;7442;50.840;3.396;2024-03-02T02:22:21;11.78;;;7.80;;
14704;SDS011;7442;50.840;3.396;2024-03-02T02:24:51;12.30;;;7.78;;
14704;SDS011;7442;50.840;3.396;2024-03-02T02:27:21;10.38;;;6.45;;
14704;SDS011;7442;50.840;3.396;2024-03-02T02:29:51;13.13;;;7.35;;
14704;SDS011;7442;50.840;3.396;2024-03-02T02:32:21;11.88;;;7.47;;
14704;SDS011;7442;50.840;3.396;2024-03-02T02:34:52;9.88;;;6.70;;
14704;SDS011;7442;50.840;3.396;2024-03-02T02:37:22;10.32;;;6.80;;
14704;SDS011;7442;50.840;3.396;2024-03-02T02:39:52;12.25;;;7.60;;
14704;SDS011;7442;50.840;3.396;2024-03-02T02:42:22;9.55;;;5.97;;
14704;SDS011;7442;50.840;3.396;2024-03-02T02:44:52;9.90;;;6.42;;
14704;SDS011;7442;50.840;3.396;2024-03-02T02:47:22;10.60;;;6.53;;
14704;SDS011;7442;50.840;3.396;2024-03-02T02:49:52;9.43;;;5.65;;
14704;SDS011;7442;50.840;3.396;2024-03-02T02:52:22;9.23;;;6.08;;
14704;SDS011;7442;50.840;3.396;2024-03-02T02:54:52;7.28;;;5.33;;
14704;SDS011;7442;50.840;3.396;2024-03-02T02:57:22;7.92;;;5.70;;
14704;SDS011;7442;50.840;3.396;2024-03-02T02:59:52;8.90;;;5.20;;
14704;SDS011;7442;50.840;3.396;2024-03-02T03:02:22;9.15;;;5.70;;
14704;SDS011;7442;50.840;3.396;2024-03-02T03:04:52;7.67;;;5.25;;
14704;SDS011;7442;50.840;3.396;2024-03-02T03:07:22;7.75;;;5.40;;
14704;SDS011;7442;50.840;3.396;2024-03-02T03:09:52;6.67;;;4.78;;
14704;SDS011;7442;50.840;3.396;2024-03-02T03:12:22;6.83;;;4.62;;
14704;SDS011;7442;50.840;3.396;2024-03-02T03:14:53;6.92;;;4.87;;
14704;SDS011;7442;50.840;3.396;2024-03-02T03:17:24;7.70;;;4.58;;
14704;SDS011;7442;50.840;3.396;2024-03-02T03:19:55;6.87;;;5.03;;
14704;SDS011;7442;50.840;3.396;2024-03-02T03:22:25;8.05;;;4.85;;
14704;SDS011;7442;50.840;3.396;2024-03-02T03:24:55;6.40;;;4.50;;
14704;SDS011;7442;50.840;3.396;2024-03-02T03:27:25;6.15;;;4.12;;
14704;SDS011;7442;50.840;3.396;2024-03-02T03:29:56;4.87;;;4.05;;
14704;SDS011;7442;50.840;3.396;2024-03-02T03:32:26;10.03;;;4.50;;
14704;SDS011;7442;50.840;3.396;2024-03-02T03:34:56;4.55;;;3.42;;
14704;SDS011;7442;50.840;3.396;2024-03-02T03:37:26;5.72;;;4.15;;
14704;SDS011;7442;50.840;3.396;2024-03-02T03:39:58;5.00;;;3.50;;
14704;SDS011;7442;50.840;3.396;2024-03-02T03:42:29;6.60;;;3.90;;
14704;SDS011;7442;50.840;3.396;2024-03-02T03:44:59;5.03;;;3.60;;
14704;SDS011;7442;50.840;3.396;2024-03-02T03:47:29;4.40;;;3.42;;
14704;SDS011;7442;50.840;3.396;2024-03-02T03:50:00;4.47;;;3.52;;
14704;SDS011;7442;50.840;3.396;2024-03-02T03:52:32;6.15;;;3.72;;
14704;SDS011;7442;50.840;3.396;2024-03-02T03:55:02;4.45;;;3.22;;
14704;SDS011;7442;50.840;3.396;2024-03-02T03:57:33;4.15;;;3.30;;
14704;SDS011;7442;50.840;3.396;2024-03-02T04:00:04;4.20;;;3.40;;
14704;SDS011;7442;50.840;3.396;2024-03-02T04:02:35;4.67;;;3.12;;
14704;SDS011;7442;50.840;3.396;2024-03-02T04:05:05;3.55;;;2.85;;
14704;SDS011;7442;50.840;3.396;2024-03-02T04:07:37;4.95;;;3.33;;
14704;SDS011;7442;50.840;3.396;2024-03-02T04:10:14;3.67;;;3.00;;
14704;SDS011;7442;50.840;3.396;2024-03-02T04:12:40;5.83;;;2.83;;
14704;SDS011;7442;50.840;3.396;2024-03-02T04:15:11;5.70;;;3.05;;
14704;SDS011;7442;50.840;3.396;2024-03-02T04:17:41;5.05;;;2.80;;
14704;SDS011;7442;50.840;3.396;2024-03-02T04:20:11;3.55;;;2.67;;
14704;SDS011;7442;50.840;3.396;2024-03-02T04:22:41;3.62;;;2.80;;
14704;SDS011;7442;50.840;3.396;2024-03-02T04:25:11;3.80;;;2.70;;
14704;SDS011;7442;50.840;3.396;2024-03-02T04:27:41;3.52;;;2.72;;
14704;SDS011;7442;50.840;3.396;2024-03-02T04:30:15;4.92;;;2.77;;
14704;SDS011;7442;50.840;3.396;2024-03-02T04:35:11;3.17;;;2.20;;
14704;SDS011;7442;50.840;3.396;2024-03-02T04:37:44;3.17;;;2.35;;
14704;SDS011;7442;50.840;3.396;2024-03-02T04:40:14;4.37;;;2.37;;
14704;SDS011;7442;50.840;3.396;2024-03-02T04:42:44;3.25;;;2.30;;
14704;SDS011;7442;50.840;3.396;2024-03-02T04:45:14;3.30;;;2.55;;
14704;SDS011;7442;50.840;3.396;2024-03-02T04:47:44;3.15;;;2.30;;
14704;SDS011;7442;50.840;3.396;2024-03-02T04:50:14;3.00;;;2.20;;
14704;SDS011;7442;50.840;3.396;2024-03-02T04:52:44;3.77;;;2.40;;
14704;SDS011;7442;50.840;3.396;2024-03-02T04:55:14;3.08;;;2.37;;
14704;SDS011;7442;50.840;3.396;2024-03-02T04:57:46;3.22;;;2.10;;
14704;SDS011;7442;50.840;3.396;2024-03-02T05:00:16;2.62;;;2.00;;
14704;SDS011;7442;50.840;3.396;2024-03-02T05:02:46;2.40;;;2.00;;
14704;SDS011;7442;50.840;3.396;2024-03-02T05:05:16;3.25;;;2.22;;
14704;SDS011;7442;50.840;3.396;2024-03-02T05:07:46;2.60;;;2.02;;
14704;SDS011;7442;50.840;3.396;2024-03-02T05:10:16;3.77;;;2.10;;
14704;SDS011;7442;50.840;3.396;2024-03-02T05:12:46;2.35;;;1.82;;
14704;SDS011;7442;50.840;3.396;2024-03-02T05:15:27;2.00;;;1.80;;
14704;SDS011;7442;50.840;3.396;2024-03-02T05:17:57;3.08;;;2.05;;
14704;SDS011;7442;50.840;3.396;2024-03-02T05:20:27;2.62;;;1.80;;
14704;SDS011;7442;50.840;3.396;2024-03-02T05:22:57;4.72;;;2.25;;
14704;SDS011;7442;50.840;3.396;2024-03-02T05:25:28;2.85;;;1.92;;
14704;SDS011;7442;50.840;3.396;2024-03-02T05:27:57;2.95;;;2.10;;
14704;SDS011;7442;50.840;3.396;2024-03-02T05:30:27;2.52;;;1.80;;
14704;SDS011;7442;50.840;3.396;2024-03-02T05:32:57;2.45;;;1.80;;
14704;SDS011;7442;50.840;3.396;2024-03-02T05:35:28;2.37;;;1.60;;
14704;SDS011;7442;50.840;3.396;2024-03-02T05:37:58;2.40;;;1.70;;
14704;SDS011;7442;50.840;3.396;2024-03-02T05:40:28;2.75;;;1.55;;
14704;SDS011;7442;50.840;3.396;2024-03-02T05:42:58;3.22;;;1.72;;
14704;SDS011;7442;50.840;3.396;2024-03-02T05:45:34;3.17;;;1.65;;
14704;SDS011;7442;50.840;3.396;2024-03-02T05:48:06;3.92;;;1.75;;
14704;SDS011;7442;50.840;3.396;2024-03-02T05:50:38;2.42;;;1.62;;
14704;SDS011;7442;50.840;3.396;2024-03-02T05:53:09;1.95;;;1.35;;
14704;SDS011;7442;50.840;3.396;2024-03-02T05:55:40;1.90;;;1.60;;
14704;SDS011;7442;50.840;3.396;2024-03-02T05:58:10;2.30;;;1.60;;
14704;SDS011;7442;50.840;3.396;2024-03-02T06:00:48;1.62;;;1.20;;
14704;SDS011;7442;50.840;3.396;2024-03-02T06:03:18;1.82;;;1.55;;
14704;SDS011;7442;50.840;3.396;2024-03-02T06:05:48;1.95;;;1.32;;
14704;SDS011;7442;50.840;3.396;2024-03-02T06:08:18;2.77;;;1.72;;
14704;SDS011;7442;50.840;3.396;2024-03-02T06:10:48;1.85;;;1.50;;
14704;SDS011;7442;50.840;3.396;2024-03-02T06:13:18;2.83;;;1.72;;
14704;SDS011;7442;50.840;3.396;2024-03-02T06:15:48;3.00;;;1.52;;
14704;SDS011;7442;50.840;3.396;2024-03-02T06:18:18;1.92;;;1.37;;
14704;SDS011;7442;50.840;3.396;2024-03-02T06:20:48;2.37;;;1.30;;
14704;SDS011;7442;50.840;3.396;2024-03-02T06:23:18;2.75;;;1.40;;
14704;SDS011;7442;50.840;3.396;2024-03-02T06:25:48;1.70;;;1.27;;
14704;SDS011;7442;50.840;3.396;2024-03-02T06:28:18;2.33;;;1.40;;
14704;SDS011;7442;50.840;3.396;2024-03-02T06:30:49;2.40;;;1.30;;
14704;SDS011;7442;50.840;3.396;2024-03-02T06:33:18;2.77;;;1.45;;
14704;SDS011;7442;50.840;3.396;2024-03-02T06:35:49;1.77;;;1.50;;
14704;SDS011;7442;50.840;3.396;2024-03-02T06:38:19;2.02;;;1.57;;
14704;SDS011;7442;50.840;3.396;2024-03-02T06:40:49;1.72;;;1.10;;
14704;SDS011;7442;50.840;3.396;2024-03-02T06:43:19;2.42;;;1.60;;
14704;SDS011;7442;50.840;3.396;2024-03-02T06:45:51;1.92;;;1.12;;
14704;SDS011;7442;50.840;3.396;2024-03-02T06:48:21;2.75;;;1.30;;
14704;SDS011;7442;50.840;3.396;2024-03-02T06:50:52;2.25;;;1.60;;
14704;SDS011;7442;50.840;3.396;2024-03-02T06:53:24;2.67;;;1.20;;
14704;SDS011;7442;50.840;3.396;2024-03-02T06:55:54;1.82;;;1.27;;
14704;SDS011;7442;50.840;3.396;2024-03-02T06:58:24;1.62;;;1.30;;
14704;SDS011;7442;50.840;3.396;2024-03-02T07:00:54;3.22;;;1.32;;
14704;SDS011;7442;50.840;3.396;2024-03-02T07:03:24;2.40;;;1.35;;
14704;SDS011;7442;50.840;3.396;2024-03-02T07:05:54;2.17;;;1.20;;
14704;SDS011;7442;50.840;3.396;2024-03-02T07:08:24;2.72;;;1.30;;
14704;SDS011;7442;50.840;3.396;2024-03-02T07:10:54;1.80;;;1.30;;
14704;SDS011;7442;50.840;3.396;2024-03-02T07:13:25;2.60;;;1.40;;
14704;SDS011;7442;50.840;3.396;2024-03-02T07:15:55;1.67;;;1.32;;
14704;SDS011;7442;50.840;3.396;2024-03-02T07:18:27;1.40;;;1.25;;
14704;SDS011;7442;50.840;3.396;2024-03-02T07:20:57;2.27;;;1.30;;
14704;SDS011;7442;50.840;3.396;2024-03-02T07:23:31;2.12;;;1.30;;
14704;SDS011;7442;50.840;3.396;2024-03-02T07:26:01;1.70;;;1.20;;
14704;SDS011;7442;50.840;3.396;2024-03-02T07:28:31;1.70;;;1.30;;
14704;SDS011;7442;50.840;3.396;2024-03-02T07:31:02;2.02;;;1.12;;
14704;SDS011;7442;50.840;3.396;2024-03-02T07:33:33;2.12;;;1.45;;
14704;SDS011;7442;50.840;3.396;2024-03-02T07:36:03;1.27;;;1.02;;
14704;SDS011;7442;50.840;3.396;2024-03-02T07:38:34;1.75;;;1.10;;
14704;SDS011;7442;50.840;3.396;2024-03-02T07:41:04;1.85;;;1.40;;
14704;SDS011;7442;50.840;3.396;2024-03-02T07:43:34;2.08;;;1.37;;
14704;SDS011;7442;50.840;3.396;2024-03-02T07:46:04;1.45;;;1.10;;
14704;SDS011;7442;50.840;3.396;2024-03-02T07:48:35;2.77;;;1.50;;
14704;SDS011;7442;50.840;3.396;2024-03-02T07:51:06;1.87;;;1.15;;
14704;SDS011;7442;50.840;3.396;2024-03-02T07:53:36;2.85;;;1.35;;
14704;SDS011;7442;50.840;3.396;2024-03-02T07:56:06;1.85;;;1.10;;
14704;SDS011;7442;50.840;3.396;2024-03-02T07:58:36;1.80;;;1.10;;
14704;SDS011;7442;50.840;3.396;2024-03-02T08:01:06;2.37;;;1.40;;
14704;SDS011;7442;50.840;3.396;2024-03-02T08:03:36;1.50;;;1.05;;
14704;SDS011;7442;50.840;3.396;2024-03-02T08:06:07;1.45;;;1.10;;
14704;SDS011;7442;50.840;3.396;2024-03-02T08:08:37;1.25;;;1.00;;
14704;SDS011;7442;50.840;3.396;2024-03-02T08:11:08;1.77;;;1.15;;
14704;SDS011;7442;50.840;3.396;2024-03-02T08:13:38;2.60;;;1.20;;
14704;SDS011;7442;50.840;3.396;2024-03-02T08:16:08;9.58;;;1.52;;
14704;SDS011;7442;50.840;3.396;2024-03-02T08:18:38;5.60;;;1.25;;
14704;SDS011;7442;50.840;3.396;2024-03-02T08:21:09;2.92;;;1.00;;
14704;SDS011;7442;50.840;3.396;2024-03-02T08:23:39;4.75;;;1.30;;
14704;SDS011;7442;50.840;3.396;2024-03-02T08:26:10;2.98;;;1.12;;
14704;SDS011;7442;50.840;3.396;2024-03-02T08:28:42;6.22;;;1.55;;
14704;SDS011;7442;50.840;3.396;2024-03-02T08:31:12;3.80;;;1.42;;
14704;SDS011;7442;50.840;3.396;2024-03-02T08:33:42;4.45;;;1.57;;
14704;SDS011;7442;50.840;3.396;2024-03-02T08:36:13;2.83;;;1.30;;
14704;SDS011;7442;50.840;3.396;2024-03-02T08:38:43;6.50;;;1.72;;
14704;SDS011;7442;50.840;3.396;2024-03-02T08:41:13;2.83;;;1.22;;
14704;SDS011;7442;50.840;3.396;2024-03-02T08:43:46;3.33;;;1.62;;
14704;SDS011;7442;50.840;3.396;2024-03-02T08:46:16;5.40;;;1.45;;
14704;SDS011;7442;50.840;3.396;2024-03-02T08:48:46;3.75;;;1.40;;
14704;SDS011;7442;50.840;3.396;2024-03-02T08:51:16;6.10;;;1.17;;
14704;SDS011;7442;50.840;3.396;2024-03-02T08:53:46;1.52;;;1.40;;
14704;SDS011;7442;50.840;3.396;2024-03-02T08:56:16;2.72;;;1.45;;
14704;SDS011;7442;50.840;3.396;2024-03-02T08:58:46;5.67;;;1.57;;
14704;SDS011;7442;50.840;3.396;2024-03-02T09:01:16;6.30;;;1.42;;
14704;SDS011;7442;50.840;3.396;2024-03-02T09:03:48;4.75;;;1.60;;
14704;SDS011;7442;50.840;3.396;2024-03-02T09:06:18;9.13;;;1.77;;
14704;SDS011;7442;50.840;3.396;2024-03-02T09:08:50;9.25;;;1.95;;
14704;SDS011;7442;50.840;3.396;2024-03-02T09:11:21;4.25;;;1.65;;
14704;SDS011;7442;50.840;3.396;2024-03-02T09:13:51;2.80;;;1.30;;
14704;SDS011;7442;50.840;3.396;2024-03-02T09:16:24;3.15;;;1.42;;
14704;SDS011;7442;50.840;3.396;2024-03-02T09:18:56;2.47;;;1.57;;
14704;SDS011;7442;50.840;3.396;2024-03-02T09:21:26;3.80;;;1.55;;
14704;SDS011;7442;50.840;3.396;2024-03-02T09:26:31;4.17;;;1.72;;
14704;SDS011;7442;50.840;3.396;2024-03-02T09:29:01;3.27;;;1.80;;
14704;SDS011;7442;50.840;3.396;2024-03-02T09:31:31;9.25;;;1.92;;
14704;SDS011;7442;50.840;3.396;2024-03-02T09:33:59;3.00;;;1.60;;
14704;SDS011;7442;50.840;3.396;2024-03-02T09:36:27;6.10;;;1.75;;
14704;SDS011;7442;50.840;3.396;2024-03-02T09:38:54;5.90;;;1.70;;
14704;SDS011;7442;50.840;3.396;2024-03-02T09:41:22;8.75;;;1.80;;
14704;SDS011;7442;50.840;3.396;2024-03-02T09:43:53;6.28;;;2.00;;
14704;SDS011;7442;50.840;3.396;2024-03-02T09:46:24;3.70;;;1.92;;
14704;SDS011;7442;50.840;3.396;2024-03-02T09:48:54;5.75;;;1.80;;
14704;SDS011;7442;50.840;3.396;2024-03-02T09:51:25;2.87;;;1.70;;
14704;SDS011;7442;50.840;3.396;2024-03-02T09:53:55;5.08;;;1.67;;
14704;SDS011;7442;50.840;3.396;2024-03-02T09:56:25;5.42;;;1.57;;
14704;SDS011;7442;50.840;3.396;2024-03-02T09:58:55;4.47;;;1.65;;
14704;SDS011;7442;50.840;3.396;2024-03-02T10:01:27;5.50;;;1.60;;
14704;SDS011;7442;50.840;3.396;2024-03-02T10:04:00;8.83;;;1.72;;
14704;SDS011;7442;50.840;3.396;2024-03-02T10:06:32;5.35;;;1.57;;
14704;SDS011;7442;50.840;3.396;2024-03-02T10:09:02;5.55;;;1.65;;
14704;SDS011;7442;50.840;3.396;2024-03-02T10:11:33;8.53;;;1.70;;
14704;SDS011;7442;50.840;3.396;2024-03-02T10:16:44;5.15;;;1.60;;
14704;SDS011;7442;50.840;3.396;2024-03-02T10:21:51;4.65;;;1.85;;
14704;SDS011;7442;50.840;3.396;2024-03-02T10:24:22;7.05;;;1.95;;
14704;SDS011;7442;50.840;3.396;2024-03-02T10:26:54;6.40;;;1.50;;
14704;SDS011;7442;50.840;3.396;2024-03-02T10:29:28;5.05;;;1.72;;
14704;SDS011;7442;50.840;3.396;2024-03-02T10:32:01;4.90;;;1.70;;
14704;SDS011;7442;50.840;3.396;2024-03-02T10:34:31;4.60;;;1.65;;
14704;SDS011;7442;50.840;3.396;2024-03-02T10:37:02;3.80;;;1.52;;
14704;SDS011;7442;50.840;3.396;2024-03-02T10:39:32;4.42;;;1.90;;
14704;SDS011;7442;50.840;3.396;2024-03-02T10:42:08;7.25;;;1.80;;
14704;SDS011;7442;50.840;3.396;2024-03-02T10:44:38;2.43;;;1.50;;
14704;SDS011;7442;50.840;3.396;2024-03-02T10:47:09;5.60;;;1.90;;
14704;SDS011;7442;50.840;3.396;2024-03-02T10:49:41;5.12;;;1.92;;
14704;SDS011;7442;50.840;3.396;2024-03-02T10:52:12;5.92;;;1.75;;
14704;SDS011;7442;50.840;3.396;2024-03-02T10:54:42;4.95;;;1.80;;
14704;SDS011;7442;50.840;3.396;2024-03-02T10:57:12;3.75;;;1.80;;
14704;SDS011;7442;50.840;3.396;2024-03-02T10:59:56;6.40;;;1.90;;
14704;SDS011;7442;50.840;3.396;2024-03-02T11:02:26;8.30;;;1.72;;
14704;SDS011;7442;50.840;3.396;2024-03-02T11:05:00;4.62;;;1.60;;
14704;SDS011;7442;50.840;3.396;2024-03-02T11:07:37;5.70;;;2.00;;
14704;SDS011;7442;50.840;3.396;2024-03-02T11:10:08;3.33;;;1.50;;
14704;SDS011;7442;50.840;3.396;2024-03-02T11:12:39;4.15;;;1.90;;
14704;SDS011;7442;50.840;3.396;2024-03-02T11:15:17;3.72;;;1.57;;
14704;SDS011;7442;50.840;3.396;2024-03-02T11:17:47;3.72;;;1.62;;
14704;SDS011;7442;50.840;3.396;2024-03-02T11:20:19;5.37;;;1.72;;
14704;SDS011;7442;50.840;3.396;2024-03-02T11:22:50;5.40;;;1.65;;
14704;SDS011;7442;50.840;3.396;2024-03-02T11:25:24;2.75;;;1.10;;
14704;SDS011;7442;50.840;3.396;2024-03-02T11:33:07;4.35;;;1.67;;
14704;SDS011;7442;50.840;3.396;2024-03-02T11:35:38;3.95;;;1.60;;
14704;SDS011;7442;50.840;3.396;2024-03-02T11:38:12;5.50;;;1.60;;
14704;SDS011;7442;50.840;3.396;2024-03-02T11:40:42;4.35;;;1.70;;
14704;SDS011;7442;50.840;3.396;2024-03-02T11:43:12;4.95;;;1.65;;
14704;SDS011;7442;50.840;3.396;2024-03-02T11:45:43;3.80;;;1.77;;
14704;SDS011;7442;50.840;3.396;2024-03-02T11:48:16;4.08;;;1.80;;
14704;SDS011;7442;50.840;3.396;2024-03-02T11:50:49;4.50;;;2.20;;
14704;SDS011;7442;50.840;3.396;2024-03-02T11:53:19;4.67;;;1.77;;
14704;SDS011;7442;50.840;3.396;2024-03-02T11:55:51;2.83;;;1.30;;
14704;SDS011;7442;50.840;3.396;2024-03-02T11:58:24;2.83;;;1.30;;
14704;SDS011;7442;50.840;3.396;2024-03-02T12:00:56;2.98;;;1.60;;
14704;SDS011;7442;50.840;3.396;2024-03-02T12:03:28;3.25;;;1.42;;
14704;SDS011;7442;50.840;3.396;2024-03-02T12:05:58;4.67;;;1.65;;
14704;SDS011;7442;50.840;3.396;2024-03-02T12:08:28;4.30;;;1.65;;
14704;SDS011;7442;50.840;3.396;2024-03-02T12:11:01;4.33;;;1.40;;
14704;SDS011;7442;50.840;3.396;2024-03-02T12:13:33;2.25;;;1.60;;
14704;SDS011;7442;50.840;3.396;2024-03-02T12:16:03;1.95;;;1.15;;
14704;SDS011;7442;50.840;3.396;2024-03-02T12:18:34;3.90;;;1.52;;
14704;SDS011;7442;50.840;3.396;2024-03-02T12:21:04;3.10;;;1.52;;
14704;SDS011;7442;50.840;3.396;2024-03-02T12:23:35;3.92;;;1.50;;
14704;SDS011;7442;50.840;3.396;2024-03-02T12:26:06;3.65;;;1.95;;
14704;SDS011;7442;50.840;3.396;2024-03-02T12:28:36;4.87;;;1.50;;
14704;SDS011;7442;50.840;3.396;2024-03-02T12:31:06;5.20;;;1.90;;
14704;SDS011;7442;50.840;3.396;2024-03-02T12:33:37;2.85;;;1.55;;
14704;SDS011;7442;50.840;3.396;2024-03-02T12:36:13;3.45;;;1.52;;
14704;SDS011;7442;50.840;3.396;2024-03-02T12:38:43;3.02;;;1.40;;
14704;SDS011;7442;50.840;3.396;2024-03-02T12:41:15;5.28;;;1.60;;
14704;SDS011;7442;50.840;3.396;2024-03-02T12:43:46;3.52;;;1.70;;
14704;SDS011;7442;50.840;3.396;2024-03-02T12:46:16;4.67;;;1.55;;
14704;SDS011;7442;50.840;3.396;2024-03-02T12:48:49;2.27;;;1.52;;
14704;SDS011;7442;50.840;3.396;2024-03-02T12:51:20;2.60;;;1.47;;
14704;SDS011;7442;50.840;3.396;2024-03-02T12:53:54;2.10;;;1.30;;
14704;SDS011;7442;50.840;3.396;2024-03-02T12:58:43;4.80;;;1.77;;
14704;SDS011;7442;50.840;3.396;2024-03-02T13:01:14;2.65;;;1.20;;
14704;SDS011;7442;50.840;3.396;2024-03-02T13:03:52;3.47;;;1.60;;
14704;SDS011;7442;50.840;3.396;2024-03-02T13:06:19;2.20;;;1.45;;
14704;SDS011;7442;50.840;3.396;2024-03-02T13:08:50;3.65;;;1.47;;
14704;SDS011;7442;50.840;3.396;2024-03-02T13:11:21;3.62;;;1.65;;
14704;SDS011;7442;50.840;3.396;2024-03-02T13:13:54;3.47;;;1.30;;
14704;SDS011;7442;50.840;3.396;2024-03-02T13:16:24;2.12;;;1.25;;
14704;SDS011;7442;50.840;3.396;2024-03-02T13:18:55;4.40;;;1.60;;
14704;SDS011;7442;50.840;3.396;2024-03-02T13:21:25;3.85;;;1.92;;
14704;SDS011;7442;50.840;3.396;2024-03-02T13:23:55;2.72;;;1.72;;
14704;SDS011;7442;50.840;3.396;2024-03-02T13:26:26;3.40;;;1.80;;
14704;SDS011;7442;50.840;3.396;2024-03-02T13:28:56;2.92;;;1.47;;
14704;SDS011;7442;50.840;3.396;2024-03-02T13:31:26;2.33;;;1.45;;
14704;SDS011;7442;50.840;3.396;2024-03-02T13:33:56;2.27;;;1.22;;
14704;SDS011;7442;50.840;3.396;2024-03-02T13:36:26;3.08;;;1.20;;
14704;SDS011;7442;50.840;3.396;2024-03-02T13:38:56;2.30;;;1.17;;
14704;SDS011;7442;50.840;3.396;2024-03-02T13:41:27;3.95;;;1.35;;
14704;SDS011;7442;50.840;3.396;2024-03-02T13:43:57;3.55;;;1.47;;
14704;SDS011;7442;50.840;3.396;2024-03-02T13:46:28;4.35;;;1.57;;
14704;SDS011;7442;50.840;3.396;2024-03-02T13:48:58;2.50;;;1.22;;
14704;SDS011;7442;50.840;3.396;2024-03-02T13:51:29;3.45;;;1.42;;
14704;SDS011;7442;50.840;3.396;2024-03-02T13:54:01;2.50;;;1.30;;
14704;SDS011;7442;50.840;3.396;2024-03-02T13:56:31;2.65;;;1.22;;
14704;SDS011;7442;50.840;3.396;2024-03-02T13:59:01;2.55;;;1.15;;
14704;SDS011;7442;50.840;3.396;2024-03-02T14:01:31;2.47;;;1.40;;
14704;SDS011;7442;50.840;3.396;2024-03-02T14:04:02;2.47;;;1.20;;
14704;SDS011;7442;50.840;3.396;2024-03-02T14:06:32;4.35;;;1.40;;
14704;SDS011;7442;50.840;3.396;2024-03-02T14:09:02;2.72;;;1.52;;
14704;SDS011;7442;50.840;3.396;2024-03-02T14:11:32;4.10;;;1.32;;
14704;SDS011;7442;50.840;3.396;2024-03-02T14:14:19;1.45;;;1.05;;
14704;SDS011;7442;50.840;3.396;2024-03-02T14:17:05;2.35;;;0.98;;
14704;SDS011;7442;50.840;3.396;2024-03-02T14:19:53;4.03;;;1.17;;
14704;SDS011;7442;50.840;3.396;2024-03-02T14:22:39;2.60;;;1.37;;
14704;SDS011;7442;50.840;3.396;2024-03-02T14:25:25;2.30;;;1.35;;
14704;SDS011;7442;50.840;3.396;2024-03-02T14:28:13;2.12;;;1.27;;
14704;SDS011;7442;50.840;3.396;2024-03-02T14:31:01;3.10;;;1.20;;
14704;SDS011;7442;50.840;3.396;2024-03-02T14:33:47;2.05;;;1.25;;
14704;SDS011;7442;50.840;3.396;2024-03-02T14:36:34;2.77;;;1.15;;
14704;SDS011;7442;50.840;3.396;2024-03-02T14:39:20;3.12;;;1.15;;
14704;SDS011;7442;50.840;3.396;2024-03-02T14:42:07;1.77;;;1.02;;
14704;SDS011;7442;50.840;3.396;2024-03-02T14:44:53;2.12;;;1.17;;
14704;SDS011;7442;50.840;3.396;2024-03-02T14:47:39;2.45;;;1.10;;
14704;SDS011;7442;50.840;3.396;2024-03-02T14:50:08;3.42;;;1.60;;
14704;SDS011;7442;50.840;3.396;2024-03-02T14:52:38;2.42;;;1.30;;
14704;SDS011;7442;50.840;3.396;2024-03-02T14:55:08;4.87;;;1.45;;
14704;SDS011;7442;50.840;3.396;2024-03-02T14:57:39;1.67;;;0.95;;
14704;SDS011;7442;50.840;3.396;2024-03-02T15:00:09;2.50;;;1.20;;
14704;SDS011;7442;50.840;3.396;2024-03-02T15:02:40;2.80;;;1.30;;
14704;SDS011;7442;50.840;3.396;2024-03-02T15:05:10;1.65;;;1.00;;
14704;SDS011;7442;50.840;3.396;2024-03-02T15:07:40;1.55;;;1.10;;
14704;SDS011;7442;50.840;3.396;2024-03-02T15:10:10;1.10;;;1.00;;
14704;SDS011;7442;50.840;3.396;2024-03-02T15:12:40;1.15;;;1.05;;
14704;SDS011;7442;50.840;3.396;2024-03-02T15:15:11;2.20;;;1.00;;
14704;SDS011;7442;50.840;3.396;2024-03-02T15:17:41;3.22;;;1.12;;
14704;SDS011;7442;50.840;3.396;2024-03-02T15:20:12;3.62;;;1.30;;
14704;SDS011;7442;50.840;3.396;2024-03-02T15:22:42;3.05;;;1.00;;
14704;SDS011;7442;50.840;3.396;2024-03-02T15:25:12;1.92;;;0.90;;
14704;SDS011;7442;50.840;3.396;2024-03-02T15:27:44;3.22;;;1.30;;
14704;SDS011;7442;50.840;3.396;2024-03-02T15:30:14;3.40;;;1.20;;
14704;SDS011;7442;50.840;3.396;2024-03-02T15:32:44;2.22;;;1.10;;
14704;SDS011;7442;50.840;3.396;2024-03-02T15:35:14;3.25;;;1.37;;
14704;SDS011;7442;50.840;3.396;2024-03-02T15:37:45;2.10;;;1.05;;
14704;SDS011;7442;50.840;3.396;2024-03-02T15:40:14;1.90;;;1.25;;
14704;SDS011;7442;50.840;3.396;2024-03-02T15:42:45;1.52;;;0.98;;